createdAt,value
2022-09-10T00:02:31.621Z,77.09
2022-09-10T00:08:51.609Z,76.82
2022-09-10T00:15:14.625Z,76.7
2022-09-10T00:21:34.630Z,77.54
2022-09-10T00:27:57.598Z,76.84
2022-09-10T00:34:17.604Z,76.68
2022-09-10T00:40:40.633Z,77.01
2022-09-10T00:47:00.596Z,76.56
2022-09-10T00:53:23.697Z,76.1
2022-09-10T00:59:43.591Z,75.59
2022-09-10T01:06:06.610Z,74.84
2022-09-10T01:12:26.664Z,75.39
2022-09-10T01:18:49.603Z,74.47
2022-09-10T01:25:09.666Z,75.72
2022-09-10T01:31:32.652Z,76.04
2022-09-10T01:37:52.569Z,76.56
2022-09-10T01:44:15.671Z,76.78
2022-09-10T01:50:35.572Z,76.15
2022-09-10T01:56:58.652Z,77.41
2022-09-10T02:03:18.597Z,76.82
2022-09-10T02:09:41.688Z,76.25
2022-09-10T02:16:01.611Z,75.7
2022-09-10T02:22:24.693Z,76.41
2022-09-10T02:28:44.581Z,76.29
2022-09-10T02:35:07.614Z,76.42
2022-09-10T02:41:27.590Z,76.81
2022-09-10T02:47:50.621Z,75.73
2022-09-10T02:54:10.577Z,75.26
2022-09-10T03:00:33.582Z,75.42
2022-09-10T03:06:53.687Z,75.33
2022-09-10T03:13:16.622Z,75.47
2022-09-10T03:19:36.621Z,75.09
2022-09-10T03:35:29.540Z,75.34
2022-09-10T03:41:49.567Z,75.36
2022-09-10T03:48:12.592Z,76.05
2022-09-10T03:54:32.578Z,75.77
2022-09-10T04:00:55.599Z,75.7
2022-09-10T04:07:15.559Z,76.32
2022-09-10T04:13:38.597Z,75.93
2022-09-10T04:19:58.700Z,76.25
2022-09-10T04:26:21.570Z,76.56
2022-09-10T04:32:41.569Z,76.16
2022-09-10T04:39:04.626Z,76.2
2022-09-10T04:45:24.582Z,75.91
2022-09-10T04:51:47.635Z,76.51
2022-09-10T04:58:07.602Z,76.24
2022-09-10T05:04:30.590Z,76.17
2022-09-10T05:10:50.632Z,76
2022-09-10T05:17:13.580Z,77.03
2022-09-10T05:23:33.578Z,76.17
2022-09-10T05:29:56.626Z,76.63
2022-09-10T05:36:16.598Z,76.02
2022-09-10T05:42:39.593Z,75.51
2022-09-10T05:48:59.609Z,75.35
2022-09-10T05:55:22.583Z,75.13
2022-09-10T06:01:42.659Z,75.05
2022-09-10T06:08:08.693Z,74.65
2022-09-10T06:14:25.617Z,74.77
2022-09-10T06:20:48.570Z,74.43
2022-09-10T06:27:08.591Z,72.9
2022-09-10T06:33:31.584Z,73.72
2022-09-10T06:39:51.613Z,73.05
2022-09-10T06:46:32.287Z,72.36
2022-09-10T06:52:34.642Z,71.45
2022-09-10T06:59:01.598Z,72.37
2022-09-10T07:05:23.652Z,71.88
2022-09-10T07:11:46.640Z,71.88
2022-09-10T07:18:06.582Z,72.35
2022-09-10T07:24:29.613Z,71.77
2022-09-10T07:30:49.588Z,71.32
2022-09-10T07:37:12.649Z,71.72
2022-09-10T07:43:32.603Z,72.63
2022-09-10T07:49:55.572Z,71.93
2022-09-10T07:56:15.656Z,71.76
2022-09-10T08:02:38.581Z,71.75
2022-09-10T08:08:58.646Z,71.31
2022-09-10T08:15:21.560Z,71.17
2022-09-10T08:21:41.651Z,69.09
2022-09-10T08:28:04.636Z,68.36
2022-09-10T08:34:24.617Z,66.45
2022-09-10T08:58:32.607Z,66.37
2022-09-10T09:04:55.561Z,65.96
2022-09-10T09:11:15.579Z,65.36
2022-09-10T09:17:38.626Z,65.65
2022-09-10T09:24:14.189Z,67.08
2022-09-10T09:30:21.601Z,68.95
2022-09-10T09:36:41.657Z,69.46
2022-09-10T09:43:04.612Z,70.22
2022-09-10T09:49:24.615Z,69.59
2022-09-10T09:55:47.646Z,67.69
2022-09-10T10:02:07.678Z,66.84
2022-09-10T10:08:30.580Z,65.9
2022-09-10T10:14:50.637Z,64.45
2022-09-10T10:21:13.567Z,65.33
2022-09-10T10:27:33.617Z,65.83
2022-09-10T10:33:56.637Z,66.22
2022-09-10T10:40:16.583Z,65.18
2022-09-10T10:46:39.672Z,65.11
2022-09-10T10:52:59.634Z,65.48
2022-09-10T10:59:22.656Z,64.79
2022-09-10T11:05:42.574Z,64.2
2022-09-10T11:12:05.648Z,63.92
2022-09-10T11:18:25.614Z,63.81
2022-09-10T11:24:48.607Z,63.09
2022-09-10T11:31:08.674Z,62.53
2022-09-10T11:37:31.653Z,61.2
2022-09-10T11:43:51.607Z,61.21
2022-09-10T11:50:14.623Z,61.28
2022-09-10T11:56:34.674Z,62.09
2022-09-10T12:02:57.603Z,64.88
2022-09-10T12:09:17.645Z,66.45
2022-09-10T12:15:40.660Z,65.97
2022-09-10T12:22:00.627Z,65.92
2022-09-10T12:28:23.648Z,65.51
2022-09-10T12:34:43.598Z,65.94
2022-09-10T12:41:06.705Z,65.36
2022-09-10T12:47:26.635Z,64.49
2022-09-10T12:53:49.638Z,64.95
2022-09-10T13:00:09.609Z,66.79
2022-09-10T13:06:32.642Z,64.91
2022-09-10T13:12:52.580Z,63.2
2022-09-10T13:19:15.621Z,61.94
2022-09-10T13:25:35.622Z,62.94
2022-09-10T13:31:58.628Z,65.64
2022-09-10T13:38:18.589Z,69.28
2022-09-10T13:44:41.624Z,71.76
2022-09-10T14:08:55.111Z,80.94
2022-09-10T14:15:14.565Z,82.02
2022-09-10T14:21:37.582Z,80.96
2022-09-10T14:27:57.596Z,80.18
2022-09-10T14:34:20.586Z,80.26
2022-09-10T14:40:40.586Z,80.07
2022-09-10T14:47:03.594Z,80.82
2022-09-10T14:53:23.612Z,81.02
2022-09-10T14:59:47.600Z,80.55
2022-09-10T15:06:07.603Z,79.06
2022-09-10T15:12:30.842Z,78.25
2022-09-10T15:18:50.562Z,76.12
2022-09-10T15:25:13.608Z,73.75
2022-09-10T15:31:34.822Z,72.52
2022-09-10T15:37:58.014Z,73.67
2022-09-10T15:44:17.611Z,72.88
2022-09-10T15:50:40.559Z,73.75
2022-09-10T15:57:00.580Z,73.32
2022-09-10T16:03:23.593Z,73.67
2022-09-10T16:09:43.584Z,72.98
2022-09-10T16:16:06.629Z,73.08
2022-09-10T16:22:26.611Z,72.16
2022-09-10T16:28:49.591Z,71.97
2022-09-10T16:35:09.562Z,71.83
2022-09-10T16:41:32.598Z,72.42
2022-09-10T16:47:52.600Z,73.25
2022-09-10T16:54:15.560Z,75.04
2022-09-10T17:00:35.851Z,75.27
2022-09-10T17:06:58.874Z,75.02
2022-09-10T17:13:18.922Z,75.59
2022-09-10T17:19:41.611Z,75.11
2022-09-10T17:26:01.575Z,75.51
2022-09-10T17:32:24.581Z,75.15
2022-09-10T17:38:44.587Z,75.41
2022-09-10T17:45:07.590Z,75.28
2022-09-10T17:51:27.595Z,75.78
2022-09-10T17:57:50.612Z,77.04
2022-09-10T18:04:10.614Z,79.55
2022-09-10T18:10:33.563Z,80.92
2022-09-10T18:16:53.657Z,81.57
2022-09-10T18:23:16.634Z,82.38
2022-09-10T18:29:36.578Z,82.7
2022-09-10T18:35:59.691Z,83.44
2022-09-10T18:42:19.602Z,85.43
2022-09-10T18:48:42.736Z,85.61
2022-09-10T18:55:02.624Z,85.66
2022-09-10T19:01:25.656Z,85.26
2022-09-10T19:17:14.527Z,85.48
2022-09-10T19:23:34.553Z,85.57
2022-09-10T19:29:57.604Z,85.57
2022-09-10T19:36:17.649Z,85.69
2022-09-10T19:42:40.643Z,85.72
2022-09-10T19:49:00.593Z,85.44
2022-09-10T19:55:23.673Z,85.41
2022-09-10T20:01:43.731Z,85.53
2022-09-10T20:08:06.601Z,85.6
2022-09-10T20:14:26.598Z,85.48
2022-09-10T20:20:49.617Z,85.4
2022-09-10T20:27:09.552Z,85.43
2022-09-10T20:33:32.633Z,85.43
2022-09-10T20:39:52.632Z,85.54
2022-09-10T20:46:15.705Z,85.84
2022-09-10T20:52:35.635Z,85.8
2022-09-10T20:58:58.558Z,85.98
2022-09-10T21:05:18.637Z,85.79
2022-09-10T21:11:41.634Z,85.83
2022-09-10T21:18:01.667Z,85.97
2022-09-10T21:24:24.697Z,85.87
2022-09-10T21:30:44.656Z,85.93
2022-09-10T21:37:07.579Z,85.87
2022-09-10T21:43:27.619Z,85.98
2022-09-10T21:49:50.589Z,86.14
2022-09-10T21:56:10.573Z,86.26
2022-09-10T22:20:28.602Z,86.9
2022-09-10T22:26:48.555Z,86.6
2022-09-10T22:33:11.582Z,86.64
2022-09-10T22:39:31.694Z,86.8
2022-09-10T22:45:54.601Z,87.02
2022-09-10T22:52:14.665Z,87.05
2022-09-10T22:58:37.712Z,86.92
2022-09-10T23:04:57.607Z,86.94
2022-09-10T23:11:20.640Z,87
2022-09-10T23:17:40.653Z,87.15
2022-09-10T23:24:03.577Z,87.06
2022-09-10T23:30:23.642Z,87.06
2022-09-10T23:36:46.631Z,87.04
2022-09-10T23:43:06.557Z,87.03
2022-09-10T23:49:29.638Z,86.96
2022-09-10T23:55:49.604Z,86.98
